This is the latest recevied weather packets stored in our database for station/object SV1RVP-13. If no packets are shown the sender has not sent any weather packets the latest 1 day(s).
| Time | Temp. | Humidity | Pressure | Rain* | Wind** | Luminosity | Snow |
|---|---|---|---|---|---|---|---|
| 1778000325 | 21.67° C | 48% | 1014.7 hPa | 0 mm | 0.45 m/s, 229° | - | - |
| 1777999707 | 22.22° C | 47% | 1014.5 hPa | 0 mm | 0.89 m/s, 194° | - | - |
| 1777999107 | 22.22° C | 46% | 1014.6 hPa | 0 mm | 0.45 m/s, 204° | - | - |
| 1777998509 | 22.78° C | 45% | 1014.6 hPa | 0 mm | 0.89 m/s, 177° | - | - |
| 1777997934 | 23.33° C | 43% | 1014.6 hPa | 0 mm | 0.89 m/s, 194° | - | - |
| 1777997323 | 23.33° C | 44% | 1014.6 hPa | 0 mm | 0.89 m/s, 207° | - | - |
| 1777996719 | 23.33° C | 44% | 1014.5 hPa | 0 mm | 0.89 m/s, 169° | - | - |
| 1777996119 | 23.33° C | 42% | 1014.5 hPa | 0 mm | 0.89 m/s, 243° | - | - |
| 1777995514 | 23.89° C | 41% | 1014.4 hPa | 0 mm | 1.34 m/s, 180° | - | - |
| 1777994910 | 23.89° C | 39% | 1014.5 hPa | 0 mm | 0.89 m/s, 182° | - | - |
| 1777994308 | 23.89° C | 38% | 1014.5 hPa | 0 mm | 0.89 m/s, 194° | - | - |
| 1777993713 | 23.89° C | 38% | 1014.4 hPa | 0 mm | 1.34 m/s, 209° | - | - |
| 1777993108 | 23.89° C | 38% | 1014.5 hPa | 0 mm | 1.34 m/s, 250° | - | - |
| 1777992534 | 24.44° C | 38% | 1014.6 hPa | 0 mm | 0.89 m/s, 142° | - | - |
| 1777991924 | 23.89° C | 39% | 1014.6 hPa | 0 mm | 1.34 m/s, 202° | - | - |
| 1777991324 | 23.89° C | 39% | 1014.7 hPa | 0 mm | 1.34 m/s, 191° | - | - |
| 1777990715 | 23.89° C | 40% | 1014.7 hPa | 0 mm | 1.34 m/s, 306° | - | - |
| 1777990119 | 24.44° C | 40% | 1014.8 hPa | 0 mm | 0.89 m/s, 166° | - | - |
| 1777989515 | 23.89° C | 41% | 1014.6 hPa | 0 mm | 1.34 m/s, 197° | - | - |
| 1777988935 | 23.89° C | 42% | 1014.7 hPa | 0 mm | 1.79 m/s, 199° | - | - |
| 1777988307 | 23.89° C | 39% | 1015 hPa | 0 mm | 1.79 m/s, 208° | - | - |
| 1777987706 | 23.89° C | 38% | 1015.1 hPa | 0 mm | 1.79 m/s, 181° | - | - |
| 1777987127 | 23.89° C | 37% | 1015.2 hPa | 0 mm | 1.79 m/s, 111° | - | - |
| 1777986514 | 23.89° C | 37% | 1015.2 hPa | 0 mm | 1.79 m/s, 246° | - | - |
| 1777985914 | 24.44° C | 36% | 1015.3 hPa | 0 mm | 1.79 m/s, 82° | - | - |
* Rain since midnight (hover to see other rain measurements)
** Current wind speed in m/s (hover to see current wind gust speed)